createdAt,value
2023-06-09T00:01:28.836Z,18.96
2023-06-09T00:03:56.656Z,18.94
2023-06-09T00:06:24.879Z,18.85
2023-06-09T00:08:51.828Z,18.82
2023-06-09T00:11:19.603Z,18.81
2023-06-09T00:13:46.449Z,18.81
2023-06-09T00:16:12.970Z,18.77
2023-06-09T00:18:41.252Z,18.81
2023-06-09T00:21:07.920Z,18.71
2023-06-09T00:23:35.205Z,18.62
2023-06-09T00:26:03.482Z,18.58
2023-06-09T00:28:30.013Z,18.29
2023-06-09T00:30:56.750Z,18.01
2023-06-09T00:33:23.224Z,17.86
2023-06-09T00:35:50.431Z,17.91
2023-06-09T00:38:17.019Z,18.00
2023-06-09T00:40:43.568Z,18.08
2023-06-09T00:43:10.097Z,18.14
2023-06-09T00:45:36.595Z,17.98
2023-06-09T00:48:03.387Z,17.94
2023-06-09T00:50:31.102Z,17.91
2023-06-09T00:52:59.310Z,17.85
2023-06-09T00:55:27.368Z,17.89
2023-06-09T00:57:56.320Z,17.91
2023-06-09T01:00:27.614Z,17.99
2023-06-09T01:02:58.070Z,18.10
2023-06-09T01:05:24.755Z,18.10
2023-06-09T01:07:56.765Z,18.15
2023-06-09T01:10:29.907Z,18.20
2023-06-09T01:13:10.639Z,18.20
2023-06-09T01:15:44.434Z,17.76
2023-06-09T01:18:14.431Z,17.53
2023-06-09T01:20:54.270Z,17.35
2023-06-09T01:23:32.130Z,17.20
2023-06-09T01:26:00.209Z,17.09
2023-06-09T01:28:29.312Z,17.11
2023-06-09T01:30:57.630Z,17.06
2023-06-09T01:33:25.942Z,17.18
2023-06-09T01:35:54.351Z,17.38
2023-06-09T01:38:22.944Z,17.58
2023-06-09T01:40:50.158Z,17.63
2023-06-09T01:43:16.836Z,17.58
2023-06-09T01:45:43.493Z,17.58
2023-06-09T01:48:32.431Z,17.60
2023-06-09T01:51:02.961Z,17.62
2023-06-09T01:53:39.666Z,17.64
2023-06-09T01:56:21.038Z,17.56
2023-06-09T01:58:50.836Z,17.52
2023-06-09T02:01:18.810Z,17.51
2023-06-09T02:03:47.549Z,17.53
2023-06-09T02:06:16.213Z,17.37
2023-06-09T02:08:43.895Z,17.33
2023-06-09T02:11:11.632Z,17.14
2023-06-09T02:13:38.924Z,17.14
2023-06-09T02:16:05.766Z,17.04
2023-06-09T02:18:33.371Z,16.98
2023-06-09T02:21:00.218Z,17.03
2023-06-09T02:23:26.765Z,17.06
2023-06-09T02:25:53.266Z,17.12
2023-06-09T02:28:19.727Z,17.17
2023-06-09T02:30:46.844Z,17.17
2023-06-09T02:33:15.784Z,17.14
2023-06-09T02:35:42.691Z,16.89
2023-06-09T02:38:09.177Z,16.78
2023-06-09T02:40:35.739Z,16.74
2023-06-09T02:43:02.320Z,16.68
2023-06-09T02:45:28.853Z,16.70
2023-06-09T02:47:55.555Z,16.70
2023-06-09T02:50:23.602Z,16.76
2023-06-09T02:52:50.288Z,16.75
2023-06-09T02:55:19.563Z,16.76
2023-06-09T02:57:47.025Z,16.74
2023-06-09T03:00:15.997Z,16.73
2023-06-09T03:02:43.673Z,16.57
2023-06-09T03:05:10.454Z,16.50
2023-06-09T03:07:37.603Z,16.44
2023-06-09T03:10:07.531Z,16.44
2023-06-09T03:12:34.057Z,16.39
2023-06-09T03:15:00.582Z,16.34
2023-06-09T03:17:28.083Z,16.41
2023-06-09T03:19:54.730Z,16.41
2023-06-09T03:22:21.762Z,16.46
2023-06-09T03:24:49.148Z,16.56
2023-06-09T03:27:16.237Z,16.60
2023-06-09T03:29:42.781Z,16.53
2023-06-09T03:32:09.282Z,16.50
2023-06-09T03:34:35.978Z,16.45
2023-06-09T03:37:04.171Z,16.49
2023-06-09T03:39:30.668Z,16.56
2023-06-09T03:41:58.196Z,16.53
2023-06-09T03:44:24.751Z,16.51
2023-06-09T03:46:51.318Z,16.50
2023-06-09T03:49:17.845Z,16.52
2023-06-09T03:51:44.545Z,16.50
2023-06-09T03:54:11.038Z,16.50
2023-06-09T03:56:37.503Z,16.45
2023-06-09T03:59:04.134Z,16.40
2023-06-09T04:01:31.812Z,16.40
2023-06-09T04:03:58.574Z,16.45
2023-06-09T04:06:25.211Z,16.44
2023-06-09T04:08:52.964Z,16.46
2023-06-09T04:11:19.673Z,16.47
2023-06-09T04:13:49.368Z,16.45
2023-06-09T04:16:19.151Z,16.51
2023-06-09T04:18:46.082Z,16.48
2023-06-09T04:21:13.463Z,16.54
2023-06-09T04:23:41.282Z,16.61
2023-06-09T04:26:14.693Z,16.67
2023-06-09T04:28:41.555Z,16.75
2023-06-09T04:31:09.895Z,16.84
2023-06-09T04:33:37.265Z,16.88
2023-06-09T04:36:07.552Z,16.91
2023-06-09T04:38:34.461Z,16.98
2023-06-09T04:41:04.793Z,17.05
2023-06-09T04:43:33.799Z,17.11
2023-06-09T04:46:00.990Z,17.13
2023-06-09T04:48:30.426Z,17.18
2023-06-09T04:50:58.148Z,17.26
2023-06-09T04:53:27.256Z,17.32
2023-06-09T04:55:55.126Z,17.34
2023-06-09T04:58:21.793Z,17.34
2023-06-09T05:00:48.877Z,17.37
2023-06-09T05:03:18.756Z,17.40
2023-06-09T05:05:45.617Z,17.45
2023-06-09T05:08:12.519Z,17.46
2023-06-09T05:10:39.002Z,17.48
2023-06-09T05:13:06.042Z,17.53
2023-06-09T05:15:32.623Z,17.55
2023-06-09T05:18:00.023Z,17.58
2023-06-09T05:20:26.850Z,17.61
2023-06-09T05:22:53.450Z,17.67
2023-06-09T05:25:20.298Z,17.74
2023-06-09T05:27:46.875Z,17.75
2023-06-09T05:30:13.513Z,17.79
2023-06-09T05:32:40.105Z,17.87
2023-06-09T05:35:06.973Z,17.93
2023-06-09T05:37:33.562Z,17.99
2023-06-09T05:40:00.137Z,18.01
2023-06-09T05:42:26.645Z,18.06
2023-06-09T05:44:53.139Z,18.10
2023-06-09T05:47:19.659Z,18.13
2023-06-09T05:49:46.253Z,18.18
2023-06-09T05:52:12.700Z,18.21
2023-06-09T05:54:39.202Z,18.24
2023-06-09T05:57:06.326Z,18.26
2023-06-09T05:59:34.334Z,18.33
2023-06-09T06:02:02.209Z,18.43
2023-06-09T06:04:29.142Z,18.50
2023-06-09T06:06:56.359Z,18.55
2023-06-09T06:09:23.110Z,18.60
2023-06-09T06:11:49.730Z,18.62
2023-06-09T06:14:16.252Z,18.70
2023-06-09T06:16:42.792Z,18.75
2023-06-09T06:19:13.889Z,18.76
2023-06-09T06:21:45.019Z,18.84
2023-06-09T06:24:12.084Z,18.86
2023-06-09T06:26:38.565Z,18.93
2023-06-09T06:29:05.161Z,18.95
2023-06-09T06:31:32.302Z,18.99
2023-06-09T06:33:59.570Z,19.02
2023-06-09T06:36:27.525Z,19.04
2023-06-09T06:38:54.190Z,19.05
2023-06-09T06:41:21.312Z,19.05
2023-06-09T06:43:51.070Z,19.08
2023-06-09T06:46:18.642Z,19.10
2023-06-09T06:48:45.584Z,19.10
2023-06-09T06:51:12.227Z,19.11
2023-06-09T06:53:39.192Z,19.13
2023-06-09T06:56:06.326Z,19.23
2023-06-09T06:58:33.080Z,19.32
2023-06-09T07:00:59.755Z,19.31
2023-06-09T07:03:27.095Z,19.31
2023-06-09T07:05:54.784Z,19.36
2023-06-09T07:08:21.693Z,19.39
2023-06-09T07:10:48.210Z,19.44
2023-06-09T07:13:15.730Z,19.47
2023-06-09T07:15:42.224Z,19.44
2023-06-09T07:18:08.828Z,19.41
2023-06-09T07:20:35.508Z,19.38
2023-06-09T07:23:02.102Z,19.37
2023-06-09T07:25:28.535Z,19.53
2023-06-09T07:27:55.043Z,19.56
2023-06-09T07:30:22.203Z,19.62
2023-06-09T07:32:48.903Z,19.63
2023-06-09T07:35:15.461Z,19.63
2023-06-09T07:37:43.573Z,19.64
2023-06-09T07:40:19.004Z,19.79
2023-06-09T07:42:47.804Z,19.93
2023-06-09T07:45:14.696Z,20.04
2023-06-09T07:47:41.647Z,20.05
2023-06-09T07:50:10.020Z,20.00
2023-06-09T07:52:38.485Z,19.97
2023-06-09T07:55:08.149Z,19.96
2023-06-09T07:57:38.376Z,20.01
2023-06-09T08:00:06.167Z,20.05
2023-06-09T08:02:33.775Z,20.09
2023-06-09T08:05:00.599Z,20.12
2023-06-09T08:07:30.210Z,20.15
2023-06-09T08:09:56.996Z,20.15
2023-06-09T08:12:23.527Z,20.14
2023-06-09T08:14:50.147Z,20.12
2023-06-09T08:17:16.650Z,20.14
2023-06-09T08:19:43.147Z,20.12
2023-06-09T08:22:09.656Z,20.13
2023-06-09T08:24:36.196Z,20.14
2023-06-09T08:27:03.899Z,20.16
2023-06-09T08:29:30.500Z,20.28
2023-06-09T08:31:57.021Z,20.46
2023-06-09T08:34:23.559Z,20.55
2023-06-09T08:36:50.452Z,20.61
2023-06-09T08:39:16.947Z,20.61
2023-06-09T08:41:47.336Z,20.69
2023-06-09T08:44:16.457Z,20.62
2023-06-09T08:46:46.941Z,20.61
2023-06-09T08:49:15.217Z,20.58
2023-06-09T08:51:44.179Z,20.59
2023-06-09T08:54:14.528Z,20.67
2023-06-09T08:56:41.641Z,20.72
2023-06-09T08:59:08.320Z,20.85
2023-06-09T09:01:37.197Z,20.96
2023-06-09T09:04:05.829Z,21.01
2023-06-09T09:06:34.535Z,20.97
2023-06-09T09:09:01.179Z,20.97
2023-06-09T09:11:28.237Z,21.09
2023-06-09T09:13:54.831Z,21.09
2023-06-09T09:16:21.542Z,21.20
2023-06-09T09:18:48.686Z,21.20
2023-06-09T09:21:23.003Z,21.14
2023-06-09T09:24:05.460Z,21.14
2023-06-09T09:26:32.869Z,21.18
2023-06-09T09:29:07.881Z,21.21
2023-06-09T09:31:37.574Z,21.54
2023-06-09T09:34:04.262Z,21.70
2023-06-09T09:36:31.029Z,21.71
2023-06-09T09:39:06.229Z,21.83
2023-06-09T09:41:32.741Z,22.05
2023-06-09T09:43:59.224Z,22.10
2023-06-09T09:46:26.162Z,22.08
2023-06-09T09:48:53.250Z,22.14
2023-06-09T09:51:24.110Z,22.37
2023-06-09T09:53:53.518Z,22.37
2023-06-09T09:56:24.938Z,22.29
2023-06-09T09:58:53.764Z,22.22
2023-06-09T10:01:25.713Z,22.43
2023-06-09T10:03:54.697Z,22.69
2023-06-09T10:06:28.680Z,22.63
2023-06-09T10:08:56.921Z,22.60
2023-06-09T10:11:29.789Z,22.55
2023-06-09T10:13:56.411Z,22.89
2023-06-09T10:16:24.442Z,23.07
2023-06-09T10:18:51.960Z,23.20
2023-06-09T10:21:22.506Z,23.16
2023-06-09T10:23:49.549Z,23.04
2023-06-09T10:26:16.620Z,23.05
2023-06-09T10:28:43.099Z,23.05
2023-06-09T10:31:12.714Z,23.07
2023-06-09T10:33:44.648Z,23.19
2023-06-09T10:36:11.655Z,23.20
2023-06-09T10:38:46.749Z,23.37
2023-06-09T10:41:32.034Z,23.38
2023-06-09T10:44:20.185Z,23.64
2023-06-09T10:46:49.440Z,23.61
2023-06-09T10:49:25.856Z,23.65
2023-06-09T10:51:56.379Z,23.61
2023-06-09T10:54:27.012Z,23.52
2023-06-09T10:56:57.358Z,23.61
2023-06-09T10:59:32.189Z,23.73
2023-06-09T11:02:05.453Z,23.61
2023-06-09T11:04:47.803Z,23.68
2023-06-09T11:07:16.746Z,23.82
2023-06-09T11:09:52.302Z,23.98
2023-06-09T11:12:28.434Z,24.10
2023-06-09T11:15:01.221Z,24.23
2023-06-09T11:17:35.079Z,24.12
2023-06-09T11:20:11.186Z,24.16
2023-06-09T11:22:53.503Z,24.20
2023-06-09T11:25:20.254Z,24.31
2023-06-09T11:28:06.886Z,24.32
2023-06-09T11:30:33.666Z,24.37
2023-06-09T11:33:02.681Z,24.55
2023-06-09T11:35:29.216Z,24.53
2023-06-09T11:38:02.942Z,24.58
2023-06-09T11:40:34.835Z,24.64
2023-06-09T11:43:02.984Z,24.94
2023-06-09T11:45:33.575Z,25.05
2023-06-09T11:48:01.662Z,25.19
2023-06-09T11:50:37.434Z,25.41
2023-06-09T11:53:06.209Z,25.21
2023-06-09T11:55:32.731Z,24.93
2023-06-09T11:58:00.641Z,25.24
2023-06-09T12:00:29.250Z,25.52
2023-06-09T12:02:59.444Z,25.27
2023-06-09T12:05:29.902Z,25.00
2023-06-09T12:07:56.926Z,24.80
2023-06-09T12:10:27.692Z,25.79
2023-06-09T12:12:56.544Z,26.68
2023-06-09T12:15:24.879Z,27.17
2023-06-09T12:17:53.390Z,27.10
2023-06-09T12:20:20.154Z,27.76
2023-06-09T12:22:46.810Z,28.30
2023-06-09T12:25:31.822Z,27.70
2023-06-09T12:28:15.234Z,27.72
2023-06-09T12:30:50.199Z,28.44
2023-06-09T12:33:28.878Z,28.97
2023-06-09T12:36:06.538Z,28.15
2023-06-09T12:38:38.886Z,27.21
2023-06-09T12:41:13.287Z,27.01
2023-06-09T12:44:00.088Z,28.17
2023-06-09T12:46:39.193Z,29.00
2023-06-09T12:49:07.696Z,29.55
2023-06-09T12:51:40.028Z,29.87
2023-06-09T12:54:08.959Z,29.87
2023-06-09T12:56:35.468Z,29.89
2023-06-09T12:59:03.586Z,30.13
2023-06-09T13:01:32.546Z,30.31
2023-06-09T13:03:59.408Z,30.47
2023-06-09T13:06:26.306Z,30.65
2023-06-09T13:08:52.889Z,30.65
2023-06-09T13:11:19.394Z,30.66
2023-06-09T13:13:45.914Z,30.64
2023-06-09T13:16:12.456Z,30.87
2023-06-09T13:18:40.738Z,31.07
2023-06-09T13:21:07.506Z,31.04
2023-06-09T13:23:34.157Z,30.79
2023-06-09T13:26:01.060Z,30.38
2023-06-09T13:28:27.796Z,30.70
2023-06-09T13:30:54.482Z,30.99
2023-06-09T13:33:21.062Z,31.28
2023-06-09T13:35:47.603Z,31.49
2023-06-09T13:38:15.582Z,31.48
2023-06-09T13:40:46.390Z,30.99
2023-06-09T13:43:17.610Z,30.27
2023-06-09T13:45:44.400Z,30.17
2023-06-09T13:48:11.383Z,29.51
2023-06-09T13:50:38.053Z,29.71
2023-06-09T13:53:04.990Z,29.80
2023-06-09T13:55:31.745Z,29.31
2023-06-09T13:57:58.333Z,28.74
2023-06-09T14:00:24.966Z,28.36
2023-06-09T14:02:51.706Z,28.07
2023-06-09T14:05:18.595Z,27.84
2023-06-09T14:07:48.367Z,27.63
2023-06-09T14:10:15.888Z,27.44
2023-06-09T14:12:46.710Z,27.35
2023-06-09T14:15:21.919Z,27.22
2023-06-09T14:17:55.177Z,27.07
2023-06-09T14:20:23.136Z,26.98
2023-06-09T14:22:53.085Z,26.92
2023-06-09T14:25:22.427Z,26.86
2023-06-09T14:27:50.932Z,26.86
2023-06-09T14:30:19.358Z,26.83
2023-06-09T14:32:49.554Z,26.79
2023-06-09T14:35:23.439Z,26.75
2023-06-09T14:37:52.174Z,27.24
2023-06-09T14:40:18.764Z,27.82
2023-06-09T14:42:49.087Z,28.24
2023-06-09T14:45:21.668Z,28.62
2023-06-09T14:47:59.626Z,28.92
2023-06-09T14:50:35.954Z,29.10
2023-06-09T14:53:03.736Z,29.19
2023-06-09T14:55:33.395Z,29.24
2023-06-09T14:58:02.212Z,29.32
2023-06-09T15:00:30.192Z,29.06
2023-06-09T15:03:11.919Z,28.49
2023-06-09T15:05:38.805Z,28.15
2023-06-09T15:08:06.637Z,27.96
2023-06-09T15:10:40.107Z,27.74
2023-06-09T15:13:06.827Z,27.57
2023-06-09T15:15:34.263Z,27.43
2023-06-09T15:18:06.800Z,27.26
2023-06-09T15:20:43.316Z,27.09
2023-06-09T15:23:11.749Z,26.87
2023-06-09T15:25:41.007Z,26.65
2023-06-09T15:28:28.361Z,26.42
2023-06-09T15:30:55.165Z,26.25
2023-06-09T15:33:23.118Z,26.18
2023-06-09T15:35:54.451Z,26.18
2023-06-09T15:38:25.110Z,26.19
2023-06-09T15:40:53.538Z,26.27
2023-06-09T15:43:22.129Z,26.48
2023-06-09T15:45:53.038Z,26.54
2023-06-09T15:48:21.056Z,26.55
2023-06-09T15:50:48.533Z,26.52
2023-06-09T15:53:20.592Z,26.46
2023-06-09T15:55:48.440Z,26.41
2023-06-09T15:58:16.281Z,26.41
2023-06-09T16:00:43.838Z,26.58
2023-06-09T16:03:10.457Z,26.84
2023-06-09T16:05:39.035Z,27.05
2023-06-09T16:08:07.834Z,27.23
2023-06-09T16:10:37.431Z,27.36
2023-06-09T16:13:07.421Z,27.51
2023-06-09T16:15:39.027Z,27.66
2023-06-09T16:18:08.142Z,27.73
2023-06-09T16:20:36.345Z,27.78
2023-06-09T16:23:04.804Z,27.93
2023-06-09T16:25:32.933Z,28.02
2023-06-09T16:28:01.039Z,28.10
2023-06-09T16:30:29.593Z,28.23
2023-06-09T16:32:56.274Z,28.29
2023-06-09T16:35:22.869Z,28.19
2023-06-09T16:37:51.015Z,28.26
2023-06-09T16:40:18.432Z,28.17
2023-06-09T16:42:44.963Z,27.95
2023-06-09T16:45:11.773Z,27.81
2023-06-09T16:47:38.481Z,27.75
2023-06-09T16:50:05.542Z,27.73
2023-06-09T16:52:32.040Z,27.68
2023-06-09T16:54:58.551Z,27.57
2023-06-09T16:57:25.018Z,27.46
2023-06-09T16:59:52.737Z,27.43
2023-06-09T17:02:21.692Z,27.43
2023-06-09T17:04:48.528Z,27.43
2023-06-09T17:07:15.085Z,27.67
2023-06-09T17:09:41.654Z,27.77
2023-06-09T17:12:08.699Z,27.73
2023-06-09T17:14:35.323Z,27.68
2023-06-09T17:17:01.791Z,27.64
2023-06-09T17:19:28.304Z,27.57
2023-06-09T17:21:54.780Z,27.65
2023-06-09T17:24:21.439Z,27.67
2023-06-09T17:26:48.034Z,27.58
2023-06-09T17:29:15.106Z,27.48
2023-06-09T17:31:41.746Z,27.38
2023-06-09T17:34:09.417Z,27.26
2023-06-09T17:36:36.059Z,27.21
2023-06-09T17:39:03.089Z,27.18
2023-06-09T17:41:29.618Z,27.04
2023-06-09T17:43:56.201Z,26.98
2023-06-09T17:46:22.849Z,26.95
2023-06-09T17:48:49.441Z,26.96
2023-06-09T17:51:17.586Z,26.95
2023-06-09T17:53:44.464Z,27.01
2023-06-09T17:56:11.113Z,27.01
2023-06-09T17:58:38.259Z,27.03
2023-06-09T18:01:04.815Z,26.93
2023-06-09T18:03:31.442Z,26.79
2023-06-09T18:05:57.973Z,26.75
2023-06-09T18:08:24.513Z,26.71
2023-06-09T18:10:50.976Z,26.67
2023-06-09T18:13:17.685Z,26.61
2023-06-09T18:15:45.204Z,26.59
2023-06-09T18:18:12.052Z,26.55
2023-06-09T18:20:38.651Z,26.56
2023-06-09T18:23:05.265Z,26.52
2023-06-09T18:25:32.860Z,26.47
2023-06-09T18:28:02.086Z,26.42
2023-06-09T18:30:29.561Z,26.37
2023-06-09T18:32:56.143Z,26.33
2023-06-09T18:35:22.642Z,26.28
2023-06-09T18:37:49.119Z,26.25
2023-06-09T18:40:15.735Z,26.19
2023-06-09T18:42:42.279Z,26.17
2023-06-09T18:45:09.686Z,26.12
2023-06-09T18:47:36.897Z,26.08
2023-06-09T18:50:03.810Z,26.04
2023-06-09T18:52:33.049Z,26.00
2023-06-09T18:54:59.571Z,25.96
2023-06-09T18:57:27.764Z,25.93
2023-06-09T18:59:54.315Z,25.87
2023-06-09T19:02:21.163Z,25.84
2023-06-09T19:04:51.517Z,25.76
2023-06-09T19:07:33.170Z,25.64
2023-06-09T19:10:00.905Z,25.62
2023-06-09T19:12:27.765Z,25.56
2023-06-09T19:14:54.238Z,25.50
2023-06-09T19:17:21.328Z,25.44
2023-06-09T19:19:47.860Z,25.40
2023-06-09T19:22:14.387Z,25.34
2023-06-09T19:24:43.443Z,25.32
2023-06-09T19:27:10.117Z,25.24
2023-06-09T19:29:36.661Z,25.25
2023-06-09T19:32:10.455Z,25.24
2023-06-09T19:34:37.364Z,25.19
2023-06-09T19:37:05.627Z,25.13
2023-06-09T19:39:32.142Z,25.11
2023-06-09T19:41:58.718Z,25.02
2023-06-09T19:44:25.243Z,25.02
2023-06-09T19:46:51.843Z,25.01
2023-06-09T19:49:18.462Z,24.99
2023-06-09T19:51:45.205Z,24.99
2023-06-09T19:54:11.954Z,24.95
2023-06-09T19:56:45.929Z,24.94
2023-06-09T19:59:13.988Z,24.91
2023-06-09T20:01:40.587Z,24.89
2023-06-09T20:04:07.120Z,24.88
2023-06-09T20:06:33.634Z,24.83
2023-06-09T20:09:00.363Z,24.75
2023-06-09T20:11:26.870Z,24.71
2023-06-09T20:13:53.918Z,24.68
2023-06-09T20:16:20.803Z,24.63
2023-06-09T20:18:47.342Z,24.59
2023-06-09T20:21:13.834Z,24.56
2023-06-09T20:23:43.119Z,24.55
2023-06-09T20:26:10.291Z,24.50
2023-06-09T20:28:37.711Z,24.47
2023-06-09T20:31:08.871Z,24.45
2023-06-09T20:33:40.865Z,24.40
2023-06-09T20:36:07.800Z,24.37
2023-06-09T20:38:34.662Z,24.34
2023-06-09T20:41:01.786Z,24.32
2023-06-09T20:43:29.005Z,24.28
2023-06-09T20:46:02.239Z,24.23
2023-06-09T20:48:29.585Z,24.17
2023-06-09T20:50:56.180Z,24.14
2023-06-09T20:53:22.937Z,24.09
2023-06-09T20:55:49.954Z,24.05
2023-06-09T20:58:16.739Z,23.97
2023-06-09T21:00:43.321Z,23.95
2023-06-09T21:03:17.129Z,23.96
2023-06-09T21:05:44.341Z,23.94
2023-06-09T21:08:10.847Z,23.88
2023-06-09T21:10:38.107Z,23.78
2023-06-09T21:13:04.700Z,23.74
2023-06-09T21:15:35.234Z,23.70
2023-06-09T21:18:02.444Z,23.71
2023-06-09T21:20:33.760Z,23.68
2023-06-09T21:23:01.285Z,23.62
2023-06-09T21:25:32.664Z,23.61
2023-06-09T21:28:06.610Z,23.58
2023-06-09T21:30:33.572Z,23.59
2023-06-09T21:33:01.813Z,23.55
2023-06-09T21:35:28.507Z,23.53
2023-06-09T21:37:56.940Z,23.51
2023-06-09T21:40:23.550Z,23.48
2023-06-09T21:42:50.144Z,23.46
2023-06-09T21:45:16.698Z,23.41
2023-06-09T21:47:43.395Z,23.36
2023-06-09T21:50:10.509Z,23.25
2023-06-09T21:52:37.065Z,23.23
2023-06-09T21:55:05.473Z,23.21
2023-06-09T21:57:32.331Z,23.19
2023-06-09T21:59:58.968Z,23.13
2023-06-09T22:02:26.259Z,23.12
2023-06-09T22:04:53.084Z,23.03
2023-06-09T22:07:19.723Z,23.03
2023-06-09T22:09:46.270Z,23.04
2023-06-09T22:12:17.345Z,23.03
2023-06-09T22:14:44.852Z,23.02
2023-06-09T22:17:11.657Z,22.99
2023-06-09T22:19:38.339Z,22.96
2023-06-09T22:22:06.062Z,22.88
2023-06-09T22:24:32.574Z,22.80
2023-06-09T22:27:01.450Z,22.79
2023-06-09T22:29:28.233Z,22.72
2023-06-09T22:31:54.782Z,22.69
2023-06-09T22:34:21.318Z,22.68
2023-06-09T22:36:48.031Z,22.60
2023-06-09T22:39:14.721Z,22.57
2023-06-09T22:41:41.482Z,22.52
2023-06-09T22:44:08.184Z,22.48
2023-06-09T22:46:35.153Z,22.43
2023-06-09T22:49:04.288Z,22.39
2023-06-09T22:51:30.986Z,22.41
2023-06-09T22:54:02.149Z,22.37
2023-06-09T22:56:28.670Z,22.38
2023-06-09T22:58:55.195Z,22.36
2023-06-09T23:01:22.040Z,22.29
2023-06-09T23:03:52.226Z,22.28
2023-06-09T23:06:20.178Z,22.24
2023-06-09T23:08:46.730Z,22.21
2023-06-09T23:11:14.604Z,22.18
2023-06-09T23:13:41.400Z,22.11
2023-06-09T23:16:09.616Z,22.13
2023-06-09T23:18:36.512Z,22.11
2023-06-09T23:21:03.315Z,22.08
2023-06-09T23:23:33.759Z,22.03
2023-06-09T23:26:01.610Z,22.01
2023-06-09T23:28:28.161Z,21.99
2023-06-09T23:30:55.512Z,22.00
2023-06-09T23:33:25.957Z,21.96
2023-06-09T23:35:53.843Z,21.93
2023-06-09T23:38:20.442Z,21.90
2023-06-09T23:40:47.091Z,21.89
2023-06-09T23:43:13.650Z,21.89
2023-06-09T23:45:40.306Z,21.87
2023-06-09T23:48:07.133Z,21.80
2023-06-09T23:50:33.870Z,21.77
2023-06-09T23:53:00.459Z,21.71
2023-06-09T23:55:26.990Z,21.72
2023-06-09T23:57:53.504Z,21.71
